Aviation Digital Data Service (ADDS)

Output produced by METARs form (1039 UTC 19 February 2019)
found at http://www.aviationweather.gov/metar/data/
 
METAR text: EYPA 191020Z 20013KT 4600 BR NSC 06/03 Q1007 R19/1///95
Conditions at: EYPA (PALANGA INTL , LT) observed 1020 UTC 19 February 2019
Temperature: 6.0°C (43°F)
Dewpoint: 3.0°C (37°F) [RH = 81%]
Pressure (altimeter): 29.73 inches Hg (1007.0 mb)
Winds: from the SSW (200 degrees) at 15 MPH (13 knots; 6.7 m/s)
Visibility: 2.86 miles (4.60 km)
Ceiling: at least 12,000 feet AGL
Clouds: sky clear below 12,000 feet AGL
Weather: BR  (mist)

METAR text: EYPA 190950Z 20014KT 4400 BR NSC 05/02 Q1007 R19/1///95
Conditions at: EYPA (PALANGA INTL , LT) observed 0950 UTC 19 February 2019
Temperature: 5.0°C (41°F)
Dewpoint: 2.0°C (36°F) [RH = 81%]
Pressure (altimeter): 29.73 inches Hg (1007.0 mb)
Winds: from the SSW (200 degrees) at 16 MPH (14 knots; 7.2 m/s)
Visibility: 2.73 miles (4.39 km)
Ceiling: at least 12,000 feet AGL
Clouds: sky clear below 12,000 feet AGL
Weather: BR  (mist)

METAR text: EYPA 190920Z 19013KT 4100 BR NSC 05/03 Q1007 R19/1///95
Conditions at: EYPA (PALANGA INTL , LT) observed 0920 UTC 19 February 2019
Temperature: 5.0°C (41°F)
Dewpoint: 3.0°C (37°F) [RH = 87%]
Pressure (altimeter): 29.73 inches Hg (1007.0 mb)
Winds: from the S (190 degrees) at 15 MPH (13 knots; 6.7 m/s)
Visibility: 2.55 miles (4.10 km)
Ceiling: at least 12,000 feet AGL
Clouds: sky clear below 12,000 feet AGL
Weather: BR  (mist)

METAR text: EYPA 190850Z 18010KT 3500 BR NSC 04/02 Q1007 R19/1///95
Conditions at: EYPA (PALANGA INTL , LT) observed 0850 UTC 19 February 2019
Temperature: 4.0°C (39°F)
Dewpoint: 2.0°C (36°F) [RH = 87%]
Pressure (altimeter): 29.73 inches Hg (1007.0 mb)
Winds: from the S (180 degrees) at 12 MPH (10 knots; 5.1 m/s)
Visibility: 2.17 miles (3.49 km)
Ceiling: at least 12,000 feet AGL
Clouds: sky clear below 12,000 feet AGL
Weather: BR  (mist)

METAR text: EYPA 190820Z 17009KT 2900 BR SCT006 03/02 Q1008 R19/1///95
Conditions at: EYPA (PALANGA INTL , LT) observed 0820 UTC 19 February 2019
Temperature: 3.0°C (37°F)
Dewpoint: 2.0°C (36°F) [RH = 93%]
Pressure (altimeter): 29.76 inches Hg (1008.0 mb)
Winds: from the S (170 degrees) at 10 MPH (9 knots; 4.6 m/s)
Visibility: 1.80 miles (2.90 km)
Ceiling: at least 12,000 feet AGL
Clouds: scattered clouds at 600 feet AGL
Weather: BR  (mist)

METAR text: EYPA 190750Z 17008KT 2500 BR BKN004 03/02 Q1008 R19/1///95
Conditions at: EYPA (PALANGA INTL , LT) observed 0750 UTC 19 February 2019
Temperature: 3.0°C (37°F)
Dewpoint: 2.0°C (36°F) [RH = 93%]
Pressure (altimeter): 29.76 inches Hg (1008.0 mb)
Winds: from the S (170 degrees) at 9 MPH (8 knots; 4.1 m/s)
Visibility: 1.55 miles (2.49 km)
Ceiling: 400 feet AGL
Clouds: broken clouds at 400 feet AGL
Weather: BR  (mist)

METAR text: EYPA 190720Z 17009KT 2200 BR BKN004 02/02 Q1009 R19/1///95
Conditions at: EYPA (PALANGA INTL , LT) observed 0720 UTC 19 February 2019
Temperature: 2.0°C (36°F)
Dewpoint: 2.0°C (36°F) [RH = 100%]
Pressure (altimeter): 29.79 inches Hg (1009.0 mb)
Winds: from the S (170 degrees) at 10 MPH (9 knots; 4.6 m/s)
Visibility: 1.37 miles (2.20 km)
Ceiling: 400 feet AGL
Clouds: broken clouds at 400 feet AGL
Weather: BR  (mist)

METAR text: EYPA 190650Z 17008KT 2000 BR BKN004 02/01 Q1009 R19/1///95
Conditions at: EYPA (PALANGA INTL , LT) observed 0650 UTC 19 February 2019
Temperature: 2.0°C (36°F)
Dewpoint: 1.0°C (34°F) [RH = 93%]
Pressure (altimeter): 29.79 inches Hg (1009.0 mb)
Winds: from the S (170 degrees) at 9 MPH (8 knots; 4.1 m/s)
Visibility: 1.24 miles (2.00 km)
Ceiling: 400 feet AGL
Clouds: broken clouds at 400 feet AGL
Weather: BR  (mist)

METAR text: EYPA 190620Z 17008KT 2100 BR BKN004 02/01 Q1010
Conditions at: EYPA (PALANGA INTL , LT) observed 0620 UTC 19 February 2019
Temperature: 2.0°C (36°F)
Dewpoint: 1.0°C (34°F) [RH = 93%]
Pressure (altimeter): 29.82 inches Hg (1010.0 mb)
Winds: from the S (170 degrees) at 9 MPH (8 knots; 4.1 m/s)
Visibility: 1.30 miles (2.09 km)
Ceiling: 400 feet AGL
Clouds: broken clouds at 400 feet AGL
Weather: BR  (mist)

METAR text: EYPA 190550Z 17008KT 2100 BR BKN004 02/01 Q1010
Conditions at: EYPA (PALANGA INTL , LT) observed 0550 UTC 19 February 2019
Temperature: 2.0°C (36°F)
Dewpoint: 1.0°C (34°F) [RH = 93%]
Pressure (altimeter): 29.82 inches Hg (1010.0 mb)
Winds: from the S (170 degrees) at 9 MPH (8 knots; 4.1 m/s)
Visibility: 1.30 miles (2.09 km)
Ceiling: 400 feet AGL
Clouds: broken clouds at 400 feet AGL
Weather: BR  (mist)

METAR text: EYPA 190520Z 17009KT 2300 BR SCT004 BKN015 02/01 Q1010
Conditions at: EYPA (PALANGA INTL , LT) observed 0520 UTC 19 February 2019
Temperature: 2.0°C (36°F)
Dewpoint: 1.0°C (34°F) [RH = 93%]
Pressure (altimeter): 29.82 inches Hg (1010.0 mb)
Winds: from the S (170 degrees) at 10 MPH (9 knots; 4.6 m/s)
Visibility: 1.43 miles (2.30 km)
Ceiling: 1500 feet AGL
Clouds: scattered clouds at 400 feet AGL
broken clouds at 1500 feet AGL
Weather: BR  (mist)

METAR text: EYPA 190450Z 18010KT 2800 BR SCT004 02/01 Q1010
Conditions at: EYPA (PALANGA INTL , LT) observed 0450 UTC 19 February 2019
Temperature: 2.0°C (36°F)
Dewpoint: 1.0°C (34°F) [RH = 93%]
Pressure (altimeter): 29.82 inches Hg (1010.0 mb)
Winds: from the S (180 degrees) at 12 MPH (10 knots; 5.1 m/s)
Visibility: 1.74 miles (2.80 km)
Ceiling: at least 12,000 feet AGL
Clouds: scattered clouds at 400 feet AGL
Weather: BR  (mist)

METAR text: EYPA 190420Z 17010KT 3000 BR FEW005 02/01 Q1011
Conditions at: EYPA (PALANGA INTL , LT) observed 0420 UTC 19 February 2019
Temperature: 2.0°C (36°F)
Dewpoint: 1.0°C (34°F) [RH = 93%]
Pressure (altimeter): 29.85 inches Hg (1011.0 mb)
Winds: from the S (170 degrees) at 12 MPH (10 knots; 5.1 m/s)
Visibility: 1.86 miles (2.99 km)
Ceiling: at least 12,000 feet AGL
Clouds: few clouds at 500 feet AGL
Weather: BR  (mist)

METAR text: EYPA 190403Z AUTO 18010KT 2800 BR FEW004/// 02/02 Q1011
Conditions at: EYPA (PALANGA INTL , LT) observed 0403 UTC 19 February 2019
Temperature: 2.0°C (36°F)
Dewpoint: 2.0°C (36°F) [RH = 100%]
Pressure (altimeter): 29.85 inches Hg (1011.0 mb)
Winds: from the S (180 degrees) at 12 MPH (10 knots; 5.1 m/s)
Visibility: 1.74 miles (2.80 km)
Ceiling: at least 12,000 feet AGL
Clouds: few clouds at 400 feet AGL
Weather: BR  (mist)

METAR text: EYPA 190350Z 17010KT 3300 BR FEW005 02/01 Q1011 R19/1///95
Conditions at: EYPA (PALANGA INTL , LT) observed 0350 UTC 19 February 2019
Temperature: 2.0°C (36°F)
Dewpoint: 1.0°C (34°F) [RH = 93%]
Pressure (altimeter): 29.85 inches Hg (1011.0 mb)
Winds: from the S (170 degrees) at 12 MPH (10 knots; 5.1 m/s)
Visibility: 2.05 miles (3.30 km)
Ceiling: at least 12,000 feet AGL
Clouds: few clouds at 500 feet AGL
Weather: BR  (mist)

METAR text: EYPA 190320Z AUTO 17010KT 3500 BR NCD 02/02 Q1012
Conditions at: EYPA (PALANGA INTL , LT) observed 0320 UTC 19 February 2019
Temperature: 2.0°C (36°F)
Dewpoint: 2.0°C (36°F) [RH = 100%]
Pressure (altimeter): 29.88 inches Hg (1012.0 mb)
Winds: from the S (170 degrees) at 12 MPH (10 knots; 5.1 m/s)
Visibility: 2.17 miles (3.49 km)
Ceiling: at least 12,000 feet AGL
Clouds: sky clear below 12,000 feet AGL
Weather: BR  (mist)

METAR text: EYPA 190250Z AUTO 18010KT 4100 BR NCD 02/02 Q1012
Conditions at: EYPA (PALANGA INTL , LT) observed 0250 UTC 19 February 2019
Temperature: 2.0°C (36°F)
Dewpoint: 2.0°C (36°F) [RH = 100%]
Pressure (altimeter): 29.88 inches Hg (1012.0 mb)
Winds: from the S (180 degrees) at 12 MPH (10 knots; 5.1 m/s)
Visibility: 2.55 miles (4.10 km)
Ceiling: at least 12,000 feet AGL
Clouds: sky clear below 12,000 feet AGL
Weather: BR  (mist)

METAR text: EYPA 190220Z AUTO 17009KT 4500 BR NCD 02/02 Q1012
Conditions at: EYPA (PALANGA INTL , LT) observed 0220 UTC 19 February 2019
Temperature: 2.0°C (36°F)
Dewpoint: 2.0°C (36°F) [RH = 100%]
Pressure (altimeter): 29.88 inches Hg (1012.0 mb)
Winds: from the S (170 degrees) at 10 MPH (9 knots; 4.6 m/s)
Visibility: 2.80 miles (4.51 km)
Ceiling: at least 12,000 feet AGL
Clouds: sky clear below 12,000 feet AGL
Weather: BR  (mist)

METAR text: EYPA 190150Z AUTO 17008KT 4700 BR NCD 02/02 Q1013
Conditions at: EYPA (PALANGA INTL , LT) observed 0150 UTC 19 February 2019
Temperature: 2.0°C (36°F)
Dewpoint: 2.0°C (36°F) [RH = 100%]
Pressure (altimeter): 29.91 inches Hg (1013.0 mb)
Winds: from the S (170 degrees) at 9 MPH (8 knots; 4.1 m/s)
Visibility: 2.92 miles (4.70 km)
Ceiling: at least 12,000 feet AGL
Clouds: sky clear below 12,000 feet AGL
Weather: BR  (mist)

METAR text: EYPA 190120Z AUTO 18009KT 5000 BR NCD 03/02 Q1013
Conditions at: EYPA (PALANGA INTL , LT) observed 0120 UTC 19 February 2019
Temperature: 3.0°C (37°F)
Dewpoint: 2.0°C (36°F) [RH = 93%]
Pressure (altimeter): 29.91 inches Hg (1013.0 mb)
Winds: from the S (180 degrees) at 10 MPH (9 knots; 4.6 m/s)
Visibility: 3 miles ( 5 km)
Ceiling: at least 12,000 feet AGL
Clouds: sky clear below 12,000 feet AGL
Weather: BR  (mist)

METAR text: EYPA 190050Z AUTO 17007KT 5000 BR NCD 02/02 Q1014
Conditions at: EYPA (PALANGA INTL , LT) observed 0050 UTC 19 February 2019
Temperature: 2.0°C (36°F)
Dewpoint: 2.0°C (36°F) [RH = 100%]
Pressure (altimeter): 29.94 inches Hg (1014.0 mb)
Winds: from the S (170 degrees) at 8 MPH (7 knots; 3.6 m/s)
Visibility: 3 miles ( 5 km)
Ceiling: at least 12,000 feet AGL
Clouds: sky clear below 12,000 feet AGL
Weather: BR  (mist)

METAR text: EYPA 190020Z AUTO 17008KT 7000 NCD 02/02 Q1015
Conditions at: EYPA (PALANGA INTL , LT) observed 0020 UTC 19 February 2019
Temperature: 2.0°C (36°F)
Dewpoint: 2.0°C (36°F) [RH = 100%]
Pressure (altimeter): 29.97 inches Hg (1015.0 mb)
Winds: from the S (170 degrees) at 9 MPH (8 knots; 4.1 m/s)
Visibility: 4 miles ( 7 km)
Ceiling: at least 12,000 feet AGL
Clouds: sky clear below 12,000 feet AGL
Weather: no significant weather observed at this time

METAR text: EYPA 182350Z AUTO 18009KT 8000 NCD 02/02 Q1015
Conditions at: EYPA (PALANGA INTL , LT) observed 2350 UTC 18 February 2019
Temperature: 2.0°C (36°F)
Dewpoint: 2.0°C (36°F) [RH = 100%]
Pressure (altimeter): 29.97 inches Hg (1015.0 mb)
Winds: from the S (180 degrees) at 10 MPH (9 knots; 4.6 m/s)
Visibility: 5 miles ( 8 km)
Ceiling: at least 12,000 feet AGL
Clouds: sky clear below 12,000 feet AGL
Weather: no significant weather observed at this time

METAR text: EYPA 182320Z AUTO 17008KT 9999 NCD 03/02 Q1015
Conditions at: EYPA (PALANGA INTL , LT) observed 2320 UTC 18 February 2019
Temperature: 3.0°C (37°F)
Dewpoint: 2.0°C (36°F) [RH = 93%]
Pressure (altimeter): 29.97 inches Hg (1015.0 mb)
Winds: from the S (170 degrees) at 9 MPH (8 knots; 4.1 m/s)
Visibility: 6 or more miles (10+ km)
Ceiling: at least 12,000 feet AGL
Clouds: sky clear below 12,000 feet AGL
Weather: no significant weather observed at this time

METAR text: EYPA 182250Z 17009KT CAVOK 03/02 Q1016 R19/1///95
Conditions at: EYPA (PALANGA INTL , LT) observed 2250 UTC 18 February 2019
Temperature: 3.0°C (37°F)
Dewpoint: 2.0°C (36°F) [RH = 93%]
Pressure (altimeter): 30.00 inches Hg (1016.0 mb)
Winds: from the S (170 degrees) at 10 MPH (9 knots; 4.6 m/s)
Visibility: 6 or more miles (10+ km)
Ceiling: ceiling and visibility are OK
Clouds: unknown
Weather: no significant weather observed at this time

METAR text: EYPA 182220Z 18009KT CAVOK 03/02 Q1016 R19/1///95
Conditions at: EYPA (PALANGA INTL , LT) observed 2220 UTC 18 February 2019
Temperature: 3.0°C (37°F)
Dewpoint: 2.0°C (36°F) [RH = 93%]
Pressure (altimeter): 30.00 inches Hg (1016.0 mb)
Winds: from the S (180 degrees) at 10 MPH (9 knots; 4.6 m/s)
Visibility: 6 or more miles (10+ km)
Ceiling: ceiling and visibility are OK
Clouds: unknown
Weather: no significant weather observed at this time

METAR text: EYPA 182150Z 17008KT CAVOK 03/02 Q1016 R19/1///95
Conditions at: EYPA (PALANGA INTL , LT) observed 2150 UTC 18 February 2019
Temperature: 3.0°C (37°F)
Dewpoint: 2.0°C (36°F) [RH = 93%]
Pressure (altimeter): 30.00 inches Hg (1016.0 mb)
Winds: from the S (170 degrees) at 9 MPH (8 knots; 4.1 m/s)
Visibility: 6 or more miles (10+ km)
Ceiling: ceiling and visibility are OK
Clouds: unknown
Weather: no significant weather observed at this time

METAR text: EYPA 182120Z 17009KT CAVOK 03/02 Q1016 R19/1///95
Conditions at: EYPA (PALANGA INTL , LT) observed 2120 UTC 18 February 2019
Temperature: 3.0°C (37°F)
Dewpoint: 2.0°C (36°F) [RH = 93%]
Pressure (altimeter): 30.00 inches Hg (1016.0 mb)
Winds: from the S (170 degrees) at 10 MPH (9 knots; 4.6 m/s)
Visibility: 6 or more miles (10+ km)
Ceiling: ceiling and visibility are OK
Clouds: unknown
Weather: no significant weather observed at this time

METAR text: EYPA 182050Z 17009KT CAVOK 03/02 Q1017 R19/1///95
Conditions at: EYPA (PALANGA INTL , LT) observed 2050 UTC 18 February 2019
Temperature: 3.0°C (37°F)
Dewpoint: 2.0°C (36°F) [RH = 93%]
Pressure (altimeter): 30.03 inches Hg (1017.0 mb)
Winds: from the S (170 degrees) at 10 MPH (9 knots; 4.6 m/s)
Visibility: 6 or more miles (10+ km)
Ceiling: ceiling and visibility are OK
Clouds: unknown
Weather: no significant weather observed at this time

METAR text: EYPA 182020Z 17012KT CAVOK 03/02 Q1017 R19/1///95
Conditions at: EYPA (PALANGA INTL , LT) observed 2020 UTC 18 February 2019
Temperature: 3.0°C (37°F)
Dewpoint: 2.0°C (36°F) [RH = 93%]
Pressure (altimeter): 30.03 inches Hg (1017.0 mb)
Winds: from the S (170 degrees) at 14 MPH (12 knots; 6.2 m/s)
Visibility: 6 or more miles (10+ km)
Ceiling: ceiling and visibility are OK
Clouds: unknown
Weather: no significant weather observed at this time

METAR text: EYPA 181950Z 17013KT CAVOK 03/02 Q1017 R19/2///95
Conditions at: EYPA (PALANGA INTL , LT) observed 1950 UTC 18 February 2019
Temperature: 3.0°C (37°F)
Dewpoint: 2.0°C (36°F) [RH = 93%]
Pressure (altimeter): 30.03 inches Hg (1017.0 mb)
Winds: from the S (170 degrees) at 15 MPH (13 knots; 6.7 m/s)
Visibility: 6 or more miles (10+ km)
Ceiling: ceiling and visibility are OK
Clouds: unknown
Weather: no significant weather observed at this time

METAR text: EYPA 181920Z 16012KT CAVOK 03/03 Q1017 R19/2///95
Conditions at: EYPA (PALANGA INTL , LT) observed 1920 UTC 18 February 2019
Temperature: 3.0°C (37°F)
Dewpoint: 3.0°C (37°F) [RH = 100%]
Pressure (altimeter): 30.03 inches Hg (1017.0 mb)
Winds: from the SSE (160 degrees) at 14 MPH (12 knots; 6.2 m/s)
Visibility: 6 or more miles (10+ km)
Ceiling: ceiling and visibility are OK
Clouds: unknown
Weather: no significant weather observed at this time

METAR text: EYPA 181850Z 16012KT 9000 SCT004 03/03 Q1018 R19/2///95
Conditions at: EYPA (PALANGA INTL , LT) observed 1850 UTC 18 February 2019
Temperature: 3.0°C (37°F)
Dewpoint: 3.0°C (37°F) [RH = 100%]
Pressure (altimeter): 30.06 inches Hg (1018.0 mb)
Winds: from the SSE (160 degrees) at 14 MPH (12 knots; 6.2 m/s)
Visibility: 6 miles ( 9 km)
Ceiling: at least 12,000 feet AGL
Clouds: scattered clouds at 400 feet AGL
Weather: no significant weather observed at this time

METAR text: EYPA 181820Z 16010KT 7000 BKN003 03/02 Q1018 R19/2///95
Conditions at: EYPA (PALANGA INTL , LT) observed 1820 UTC 18 February 2019
Temperature: 3.0°C (37°F)
Dewpoint: 2.0°C (36°F) [RH = 93%]
Pressure (altimeter): 30.06 inches Hg (1018.0 mb)
Winds: from the SSE (160 degrees) at 12 MPH (10 knots; 5.1 m/s)
Visibility: 4 miles ( 7 km)
Ceiling: 300 feet AGL
Clouds: broken clouds at 300 feet AGL
Weather: no significant weather observed at this time

METAR text: EYPA 181750Z 16011KT 6000 BKN003 03/03 Q1018 R19/2///95
Conditions at: EYPA (PALANGA INTL , LT) observed 1750 UTC 18 February 2019
Temperature: 3.0°C (37°F)
Dewpoint: 3.0°C (37°F) [RH = 100%]
Pressure (altimeter): 30.06 inches Hg (1018.0 mb)
Winds: from the SSE (160 degrees) at 13 MPH (11 knots; 5.7 m/s)
Visibility: 4 miles ( 6 km)
Ceiling: 300 feet AGL
Clouds: broken clouds at 300 feet AGL
Weather: no significant weather observed at this time

METAR text: EYPA 181720Z 17009KT 140V200 9000 OVC004 03/02 Q1019 R19/2///95
Conditions at: EYPA (PALANGA INTL , LT) observed 1720 UTC 18 February 2019
Temperature: 3.0°C (37°F)
Dewpoint: 2.0°C (36°F) [RH = 93%]
Pressure (altimeter): 30.09 inches Hg (1019.0 mb)
Winds: from the S (170 degrees) at 10 MPH (9 knots; 4.6 m/s)
Visibility: 6 miles ( 9 km)
Ceiling: 400 feet AGL
Clouds: overcast cloud deck at 400 feet AGL
Weather: no significant weather observed at this time

METAR text: EYPA 181650Z 17009KT 140V200 9999 BKN003 03/02 Q1019 R19/2///95
Conditions at: EYPA (PALANGA INTL , LT) observed 1650 UTC 18 February 2019
Temperature: 3.0°C (37°F)
Dewpoint: 2.0°C (36°F) [RH = 93%]
Pressure (altimeter): 30.09 inches Hg (1019.0 mb)
Winds: from the S (170 degrees) at 10 MPH (9 knots; 4.6 m/s)
Visibility: 6 or more miles (10+ km)
Ceiling: 300 feet AGL
Clouds: broken clouds at 300 feet AGL
Weather: no significant weather observed at this time

METAR text: EYPA 181620Z 17011KT 9000 OVC003 02/02 Q1019 R19/2///95
Conditions at: EYPA (PALANGA INTL , LT) observed 1620 UTC 18 February 2019
Temperature: 2.0°C (36°F)
Dewpoint: 2.0°C (36°F) [RH = 100%]
Pressure (altimeter): 30.09 inches Hg (1019.0 mb)
Winds: from the S (170 degrees) at 13 MPH (11 knots; 5.7 m/s)
Visibility: 6 miles ( 9 km)
Ceiling: 300 feet AGL
Clouds: overcast cloud deck at 300 feet AGL
Weather: no significant weather observed at this time

METAR text: EYPA 181550Z 18013KT 5000 OVC003 02/02 Q1019 R19/2///95
Conditions at: EYPA (PALANGA INTL , LT) observed 1550 UTC 18 February 2019
Temperature: 2.0°C (36°F)
Dewpoint: 2.0°C (36°F) [RH = 100%]
Pressure (altimeter): 30.09 inches Hg (1019.0 mb)
Winds: from the S (180 degrees) at 15 MPH (13 knots; 6.7 m/s)
Visibility: 3 miles ( 5 km)
Ceiling: 300 feet AGL
Clouds: overcast cloud deck at 300 feet AGL
Weather: no significant weather observed at this time

METAR text: EYPA 181520Z 18011KT 5000 BR OVC003 03/02 Q1020 R19/2///95
Conditions at: EYPA (PALANGA INTL , LT) observed 1520 UTC 18 February 2019
Temperature: 3.0°C (37°F)
Dewpoint: 2.0°C (36°F) [RH = 93%]
Pressure (altimeter): 30.12 inches Hg (1020.0 mb)
Winds: from the S (180 degrees) at 13 MPH (11 knots; 5.7 m/s)
Visibility: 3 miles ( 5 km)
Ceiling: 300 feet AGL
Clouds: overcast cloud deck at 300 feet AGL
Weather: BR  (mist)

METAR text: EYPA 181450Z 17013KT 5000 BR OVC002 03/03 Q1020 R19/2///95
Conditions at: EYPA (PALANGA INTL , LT) observed 1450 UTC 18 February 2019
Temperature: 3.0°C (37°F)
Dewpoint: 3.0°C (37°F) [RH = 100%]
Pressure (altimeter): 30.12 inches Hg (1020.0 mb)
Winds: from the S (170 degrees) at 15 MPH (13 knots; 6.7 m/s)
Visibility: 3 miles ( 5 km)
Ceiling: 200 feet AGL
Clouds: overcast cloud deck at 200 feet AGL
Weather: BR  (mist)

METAR text: EYPA 181420Z 19012KT 3500 BR OVC002 03/03 Q1020 R19/2///95
Conditions at: EYPA (PALANGA INTL , LT) observed 1420 UTC 18 February 2019
Temperature: 3.0°C (37°F)
Dewpoint: 3.0°C (37°F) [RH = 100%]
Pressure (altimeter): 30.12 inches Hg (1020.0 mb)
Winds: from the S (190 degrees) at 14 MPH (12 knots; 6.2 m/s)
Visibility: 2.17 miles (3.49 km)
Ceiling: 200 feet AGL
Clouds: overcast cloud deck at 200 feet AGL
Weather: BR  (mist)

METAR text: EYPA 181350Z 17011KT 3800 BR OVC003 03/03 Q1020 R19/2///95
Conditions at: EYPA (PALANGA INTL , LT) observed 1350 UTC 18 February 2019
Temperature: 3.0°C (37°F)
Dewpoint: 3.0°C (37°F) [RH = 100%]
Pressure (altimeter): 30.12 inches Hg (1020.0 mb)
Winds: from the S (170 degrees) at 13 MPH (11 knots; 5.7 m/s)
Visibility: 2.36 miles (3.80 km)
Ceiling: 300 feet AGL
Clouds: overcast cloud deck at 300 feet AGL
Weather: BR  (mist)

METAR text: EYPA 181320Z 18012KT 4100 BR OVC002 03/03 Q1021 R19/2///95
Conditions at: EYPA (PALANGA INTL , LT) observed 1320 UTC 18 February 2019
Temperature: 3.0°C (37°F)
Dewpoint: 3.0°C (37°F) [RH = 100%]
Pressure (altimeter): 30.15 inches Hg (1021.0 mb)
Winds: from the S (180 degrees) at 14 MPH (12 knots; 6.2 m/s)
Visibility: 2.55 miles (4.10 km)
Ceiling: 200 feet AGL
Clouds: overcast cloud deck at 200 feet AGL
Weather: BR  (mist)

METAR text: EYPA 181250Z 18009KT 3500 BR BKN002 03/03 Q1021 R19/2///95
Conditions at: EYPA (PALANGA INTL , LT) observed 1250 UTC 18 February 2019
Temperature: 3.0°C (37°F)
Dewpoint: 3.0°C (37°F) [RH = 100%]
Pressure (altimeter): 30.15 inches Hg (1021.0 mb)
Winds: from the S (180 degrees) at 10 MPH (9 knots; 4.6 m/s)
Visibility: 2.17 miles (3.49 km)
Ceiling: 200 feet AGL
Clouds: broken clouds at 200 feet AGL
Weather: BR  (mist)

METAR text: EYPA 181220Z 17011KT 3900 BR OVC002 03/03 Q1021 R19/2///95
Conditions at: EYPA (PALANGA INTL , LT) observed 1220 UTC 18 February 2019
Temperature: 3.0°C (37°F)
Dewpoint: 3.0°C (37°F) [RH = 100%]
Pressure (altimeter): 30.15 inches Hg (1021.0 mb)
Winds: from the S (170 degrees) at 13 MPH (11 knots; 5.7 m/s)
Visibility: 2.42 miles (3.89 km)
Ceiling: 200 feet AGL
Clouds: overcast cloud deck at 200 feet AGL
Weather: BR  (mist)

METAR text: EYPA 181150Z 17010KT 3500 BR OVC002 03/03 Q1022 R19/2///95
Conditions at: EYPA (PALANGA INTL , LT) observed 1150 UTC 18 February 2019
Temperature: 3.0°C (37°F)
Dewpoint: 3.0°C (37°F) [RH = 100%]
Pressure (altimeter): 30.18 inches Hg (1022.0 mb)
Winds: from the S (170 degrees) at 12 MPH (10 knots; 5.1 m/s)
Visibility: 2.17 miles (3.49 km)
Ceiling: 200 feet AGL
Clouds: overcast cloud deck at 200 feet AGL
Weather: BR  (mist)

METAR text: EYPA 181120Z 18010KT 2700 BR OVC002 03/03 Q1022 R19/2///95
Conditions at: EYPA (PALANGA INTL , LT) observed 1120 UTC 18 February 2019
Temperature: 3.0°C (37°F)
Dewpoint: 3.0°C (37°F) [RH = 100%]
Pressure (altimeter): 30.18 inches Hg (1022.0 mb)
Winds: from the S (180 degrees) at 12 MPH (10 knots; 5.1 m/s)
Visibility: 1.68 miles (2.70 km)
Ceiling: 200 feet AGL
Clouds: overcast cloud deck at 200 feet AGL
Weather: BR  (mist)

METAR text: EYPA 181050Z 19010KT 2700 BR OVC002 03/03 Q1023 R19/2///95
Conditions at: EYPA (PALANGA INTL , LT) observed 1050 UTC 18 February 2019
Temperature: 3.0°C (37°F)
Dewpoint: 3.0°C (37°F) [RH = 100%]
Pressure (altimeter): 30.21 inches Hg (1023.0 mb)
Winds: from the S (190 degrees) at 12 MPH (10 knots; 5.1 m/s)
Visibility: 1.68 miles (2.70 km)
Ceiling: 200 feet AGL
Clouds: overcast cloud deck at 200 feet AGL
Weather: BR  (mist)

METAR text: EYPA 181020Z 17009KT 3500 BR OVC002 03/03 Q1023 R19/2///95
Conditions at: EYPA (PALANGA INTL , LT) observed 1020 UTC 18 February 2019
Temperature: 3.0°C (37°F)
Dewpoint: 3.0°C (37°F) [RH = 100%]
Pressure (altimeter): 30.21 inches Hg (1023.0 mb)
Winds: from the S (170 degrees) at 10 MPH (9 knots; 4.6 m/s)
Visibility: 2.17 miles (3.49 km)
Ceiling: 200 feet AGL
Clouds: overcast cloud deck at 200 feet AGL
Weather: BR  (mist)

METAR text: EYPA 180950Z 18009KT 4500 BR OVC002 03/03 Q1023 R19/2///95
Conditions at: EYPA (PALANGA INTL , LT) observed 0950 UTC 18 February 2019
Temperature: 3.0°C (37°F)
Dewpoint: 3.0°C (37°F) [RH = 100%]
Pressure (altimeter): 30.21 inches Hg (1023.0 mb)
Winds: from the S (180 degrees) at 10 MPH (9 knots; 4.6 m/s)
Visibility: 2.80 miles (4.51 km)
Ceiling: 200 feet AGL
Clouds: overcast cloud deck at 200 feet AGL
Weather: BR  (mist)

METAR text: EYPA 180920Z 19007KT 3600 BR BKN002 04/04 Q1023 R19/2///95
Conditions at: EYPA (PALANGA INTL , LT) observed 0920 UTC 18 February 2019
Temperature: 4.0°C (39°F)
Dewpoint: 4.0°C (39°F) [RH = 100%]
Pressure (altimeter): 30.21 inches Hg (1023.0 mb)
Winds: from the S (190 degrees) at 8 MPH (7 knots; 3.6 m/s)
Visibility: 2.24 miles (3.60 km)
Ceiling: 200 feet AGL
Clouds: broken clouds at 200 feet AGL
Weather: BR  (mist)

METAR text: EYPA 180850Z 19008KT 0900 R19/1000V1400U FG VV002 03/03 Q1023 R19/2///95
Conditions at: EYPA (PALANGA INTL , LT) observed 0850 UTC 18 February 2019
Temperature: 3.0°C (37°F)
Dewpoint: 3.0°C (37°F) [RH = 100%]
Pressure (altimeter): 30.21 inches Hg (1023.0 mb)
Winds: from the S (190 degrees) at 9 MPH (8 knots; 4.1 m/s)
Visibility: 0.56 miles (0.90 km)
Ceiling: indefinite ceiling with vertical visibility of 200 feet AGL
Clouds: obscured sky
Weather: FG  (fog)

METAR text: EYPA 180820Z 20007KT 0400 R19/0550N FG VV002 03/03 Q1023 R19/2///95
Conditions at: EYPA (PALANGA INTL , LT) observed 0820 UTC 18 February 2019
Temperature: 3.0°C (37°F)
Dewpoint: 3.0°C (37°F) [RH = 100%]
Pressure (altimeter): 30.21 inches Hg (1023.0 mb)
Winds: from the SSW (200 degrees) at 8 MPH (7 knots; 3.6 m/s)
Visibility: 0.25 miles (0.40 km)
Ceiling: indefinite ceiling with vertical visibility of 200 feet AGL
Clouds: obscured sky
Weather: FG  (fog)

METAR text: EYPA 180750Z 21006KT 180V240 0300 R19/0500N FG VV002 03/03 Q1023 R19/2///95
Conditions at: EYPA (PALANGA INTL , LT) observed 0750 UTC 18 February 2019
Temperature: 3.0°C (37°F)
Dewpoint: 3.0°C (37°F) [RH = 100%]
Pressure (altimeter): 30.21 inches Hg (1023.0 mb)
Winds: from the SSW (210 degrees) at 7 MPH (6 knots; 3.1 m/s)
Visibility: 0.19 miles (0.31 km)
Ceiling: indefinite ceiling with vertical visibility of 200 feet AGL
Clouds: obscured sky
Weather: FG  (fog)

METAR text: EYPA 180720Z 21005KT 190V250 0600 R19/0500V0800D FG VV002 03/03 Q1023 R19/2///95
Conditions at: EYPA (PALANGA INTL , LT) observed 0720 UTC 18 February 2019
Temperature: 3.0°C (37°F)
Dewpoint: 3.0°C (37°F) [RH = 100%]
Pressure (altimeter): 30.21 inches Hg (1023.0 mb)
Winds: from the SSW (210 degrees) at 6 MPH (5 knots; 2.6 m/s)
Visibility: 0.37 miles (0.60 km)
Ceiling: indefinite ceiling with vertical visibility of 200 feet AGL
Clouds: obscured sky
Weather: FG  (fog)

METAR text: EYPA 180650Z 20006KT 4000 BR BKN002 03/03 Q1023 R19/2///95
Conditions at: EYPA (PALANGA INTL , LT) observed 0650 UTC 18 February 2019
Temperature: 3.0°C (37°F)
Dewpoint: 3.0°C (37°F) [RH = 100%]
Pressure (altimeter): 30.21 inches Hg (1023.0 mb)
Winds: from the SSW (200 degrees) at 7 MPH (6 knots; 3.1 m/s)
Visibility: 2.49 miles (4.01 km)
Ceiling: 200 feet AGL
Clouds: broken clouds at 200 feet AGL
Weather: BR  (mist)

METAR text: EYPA 180620Z 21005KT 180V250 0650 R19/0700D FG VV002 03/03 Q1023 R19/2///95
Conditions at: EYPA (PALANGA INTL , LT) observed 0620 UTC 18 February 2019
Temperature: 3.0°C (37°F)
Dewpoint: 3.0°C (37°F) [RH = 100%]
Pressure (altimeter): 30.21 inches Hg (1023.0 mb)
Winds: from the SSW (210 degrees) at 6 MPH (5 knots; 2.6 m/s)
Visibility: 0.40 miles (0.64 km)
Ceiling: indefinite ceiling with vertical visibility of 200 feet AGL
Clouds: obscured sky
Weather: FG  (fog)

METAR text: EYPA 180550Z 21005KT 0600 R19/1300U FG VV002 03/03 Q1023 R19/2///95
Conditions at: EYPA (PALANGA INTL , LT) observed 0550 UTC 18 February 2019
Temperature: 3.0°C (37°F)
Dewpoint: 3.0°C (37°F) [RH = 100%]
Pressure (altimeter): 30.21 inches Hg (1023.0 mb)
Winds: from the SSW (210 degrees) at 6 MPH (5 knots; 2.6 m/s)
Visibility: 0.37 miles (0.60 km)
Ceiling: indefinite ceiling with vertical visibility of 200 feet AGL
Clouds: obscured sky
Weather: FG  (fog)

METAR text: EYPA 180520Z 21003KT 190V250 0500 R19/1400U FG VV002 03/03 Q1023 R19/2///95
Conditions at: EYPA (PALANGA INTL , LT) observed 0520 UTC 18 February 2019
Temperature: 3.0°C (37°F)
Dewpoint: 3.0°C (37°F) [RH = 100%]
Pressure (altimeter): 30.21 inches Hg (1023.0 mb)
Winds: from the SSW (210 degrees) at 3 MPH (3 knots; 1.5 m/s)
Visibility: 0.31 miles (0.50 km)
Ceiling: indefinite ceiling with vertical visibility of 200 feet AGL
Clouds: obscured sky
Weather: FG  (fog)

METAR text: EYPA 180450Z 17003KT 0450 R19/1200N FG VV002 03/03 Q1023 R19/2///95
Conditions at: EYPA (PALANGA INTL , LT) observed 0450 UTC 18 February 2019
Temperature: 3.0°C (37°F)
Dewpoint: 3.0°C (37°F) [RH = 100%]
Pressure (altimeter): 30.21 inches Hg (1023.0 mb)
Winds: from the S (170 degrees) at 3 MPH (3 knots; 1.5 m/s)
Visibility: 0.28 miles (0.45 km)
Ceiling: indefinite ceiling with vertical visibility of 200 feet AGL
Clouds: obscured sky
Weather: FG  (fog)

METAR text: EYPA 180420Z 18004KT 0350 R19/1000N FG VV002 03/03 Q1023 R19/2///95
Conditions at: EYPA (PALANGA INTL , LT) observed 0420 UTC 18 February 2019
Temperature: 3.0°C (37°F)
Dewpoint: 3.0°C (37°F) [RH = 100%]
Pressure (altimeter): 30.21 inches Hg (1023.0 mb)
Winds: from the S (180 degrees) at 5 MPH (4 knots; 2.1 m/s)
Visibility: 0.22 miles (0.35 km)
Ceiling: indefinite ceiling with vertical visibility of 200 feet AGL
Clouds: obscured sky
Weather: FG  (fog)

METAR text: EYPA 180350Z 20003KT 0300 R19/0800N FG VV002 03/03 Q1023 R19/2///95
Conditions at: EYPA (PALANGA INTL , LT) observed 0350 UTC 18 February 2019
Temperature: 3.0°C (37°F)
Dewpoint: 3.0°C (37°F) [RH = 100%]
Pressure (altimeter): 30.21 inches Hg (1023.0 mb)
Winds: from the SSW (200 degrees) at 3 MPH (3 knots; 1.5 m/s)
Visibility: 0.19 miles (0.31 km)
Ceiling: indefinite ceiling with vertical visibility of 200 feet AGL
Clouds: obscured sky
Weather: FG  (fog)

METAR text: EYPA 180320Z 20003KT 0450 R19/1100D FG VV002 03/03 Q1023
Conditions at: EYPA (PALANGA INTL , LT) observed 0320 UTC 18 February 2019
Temperature: 3.0°C (37°F)
Dewpoint: 3.0°C (37°F) [RH = 100%]
Pressure (altimeter): 30.21 inches Hg (1023.0 mb)
Winds: from the SSW (200 degrees) at 3 MPH (3 knots; 1.5 m/s)
Visibility: 0.28 miles (0.45 km)
Ceiling: indefinite ceiling with vertical visibility of 200 feet AGL
Clouds: obscured sky
Weather: FG  (fog)

METAR text: EYPA 180252Z AUTO 21003KT 190V250 0700 R19/P2000D DZ BKN001/// 03/03 Q1023
Conditions at: EYPA (PALANGA INTL , LT) observed 0252 UTC 18 February 2019
Temperature: 3.0°C (37°F)
Dewpoint: 3.0°C (37°F) [RH = 100%]
Pressure (altimeter): 30.21 inches Hg (1023.0 mb)
Winds: from the SSW (210 degrees) at 3 MPH (3 knots; 1.5 m/s)
Visibility: 0.43 miles (0.69 km)
Ceiling: 100 feet AGL
Clouds: broken clouds at 100 feet AGL
Weather: DZ  (moderate drizzle)

METAR text: EYPA 180250Z AUTO 21004KT 0900 R19/P2000N -DZ BKN002/// 03/03 Q1023
Conditions at: EYPA (PALANGA INTL , LT) observed 0250 UTC 18 February 2019
Temperature: 3.0°C (37°F)
Dewpoint: 3.0°C (37°F) [RH = 100%]
Pressure (altimeter): 30.21 inches Hg (1023.0 mb)
Winds: from the SSW (210 degrees) at 5 MPH (4 knots; 2.1 m/s)
Visibility: 0.56 miles (0.90 km)
Ceiling: 200 feet AGL
Clouds: broken clouds at 200 feet AGL
Weather: -DZ  (light drizzle)

METAR text: EYPA 180238Z AUTO 19004KT 1200 R19/P2000N BR OVC001/// 03/03 Q1023
Conditions at: EYPA (PALANGA INTL , LT) observed 0238 UTC 18 February 2019
Temperature: 3.0°C (37°F)
Dewpoint: 3.0°C (37°F) [RH = 100%]
Pressure (altimeter): 30.21 inches Hg (1023.0 mb)
Winds: from the S (190 degrees) at 5 MPH (4 knots; 2.1 m/s)
Visibility: 0.75 miles (1.21 km)
Ceiling: 100 feet AGL
Clouds: overcast cloud deck at 100 feet AGL
Weather: BR  (mist)

METAR text: EYPA 180220Z AUTO 19003KT 3000 BR OVC002/// 03/03 Q1023
Conditions at: EYPA (PALANGA INTL , LT) observed 0220 UTC 18 February 2019
Temperature: 3.0°C (37°F)
Dewpoint: 3.0°C (37°F) [RH = 100%]
Pressure (altimeter): 30.21 inches Hg (1023.0 mb)
Winds: from the S (190 degrees) at 3 MPH (3 knots; 1.5 m/s)
Visibility: 1.86 miles (2.99 km)
Ceiling: 200 feet AGL
Clouds: overcast cloud deck at 200 feet AGL
Weather: BR  (mist)

METAR text: EYPA 180209Z AUTO 20004KT 3600 BR VV001 04/04 Q1023
Conditions at: EYPA (PALANGA INTL , LT) observed 0209 UTC 18 February 2019
Temperature: 4.0°C (39°F)
Dewpoint: 4.0°C (39°F) [RH = 100%]
Pressure (altimeter): 30.21 inches Hg (1023.0 mb)
Winds: from the SSW (200 degrees) at 5 MPH (4 knots; 2.1 m/s)
Visibility: 2.24 miles (3.60 km)
Ceiling: indefinite ceiling with vertical visibility of 100 feet AGL
Clouds: obscured sky
Weather: BR  (mist)

METAR text: EYPA 180203Z AUTO 20005KT 1900 BR VV001 04/04 Q1023
Conditions at: EYPA (PALANGA INTL , LT) observed 0203 UTC 18 February 2019
Temperature: 4.0°C (39°F)
Dewpoint: 4.0°C (39°F) [RH = 100%]
Pressure (altimeter): 30.21 inches Hg (1023.0 mb)
Winds: from the SSW (200 degrees) at 6 MPH (5 knots; 2.6 m/s)
Visibility: 1.18 miles (1.90 km)
Ceiling: indefinite ceiling with vertical visibility of 100 feet AGL
Clouds: obscured sky
Weather: BR  (mist)

METAR text: EYPA 180150Z AUTO 20004KT 0350 R19/0800V1300U FG VV002 04/04 Q1023
Conditions at: EYPA (PALANGA INTL , LT) observed 0150 UTC 18 February 2019
Temperature: 4.0°C (39°F)
Dewpoint: 4.0°C (39°F) [RH = 100%]
Pressure (altimeter): 30.21 inches Hg (1023.0 mb)
Winds: from the SSW (200 degrees) at 5 MPH (4 knots; 2.1 m/s)
Visibility: 0.22 miles (0.35 km)
Ceiling: indefinite ceiling with vertical visibility of 200 feet AGL
Clouds: obscured sky
Weather: FG  (fog)

METAR text: EYPA 180120Z AUTO 16003KT 0500 R19/1300D FG VV003 04/04 Q1023
Conditions at: EYPA (PALANGA INTL , LT) observed 0120 UTC 18 February 2019
Temperature: 4.0°C (39°F)
Dewpoint: 4.0°C (39°F) [RH = 100%]
Pressure (altimeter): 30.21 inches Hg (1023.0 mb)
Winds: from the SSE (160 degrees) at 3 MPH (3 knots; 1.5 m/s)
Visibility: 0.31 miles (0.50 km)
Ceiling: indefinite ceiling with vertical visibility of 300 feet AGL
Clouds: obscured sky
Weather: FG  (fog)

METAR text: EYPA 180054Z AUTO VRB02KT 0450 R19/1100VP2000D FG VV001 04/04 Q1023
Conditions at: EYPA (PALANGA INTL , LT) observed 0054 UTC 18 February 2019
Temperature: 4.0°C (39°F)
Dewpoint: 4.0°C (39°F) [RH = 100%]
Pressure (altimeter): 30.21 inches Hg (1023.0 mb)
Winds: variable direction winds at 2 MPH (2 knots; 1.0 m/s)
Visibility: 0.28 miles (0.45 km)
Ceiling: indefinite ceiling with vertical visibility of 100 feet AGL
Clouds: obscured sky
Weather: FG  (fog)

METAR text: EYPA 180050Z AUTO VRB02KT 0500 R19/1200VP2000D VV002 04/04 Q1023
Conditions at: EYPA (PALANGA INTL , LT) observed 0050 UTC 18 February 2019
Temperature: 4.0°C (39°F)
Dewpoint: 4.0°C (39°F) [RH = 100%]
Pressure (altimeter): 30.21 inches Hg (1023.0 mb)
Winds: variable direction winds at 2 MPH (2 knots; 1.0 m/s)
Visibility: 0.31 miles (0.50 km)
Ceiling: indefinite ceiling with vertical visibility of 200 feet AGL
Clouds: obscured sky
Weather: no significant weather observed at this time

METAR text: EYPA 180035Z AUTO 05003KT 2500 BR OVC001/// 04/04 Q1023
Conditions at: EYPA (PALANGA INTL , LT) observed 0035 UTC 18 February 2019
Temperature: 4.0°C (39°F)
Dewpoint: 4.0°C (39°F) [RH = 100%]
Pressure (altimeter): 30.21 inches Hg (1023.0 mb)
Winds: from the NE (50 degrees) at 3 MPH (3 knots; 1.5 m/s)
Visibility: 1.55 miles (2.49 km)
Ceiling: 100 feet AGL
Clouds: overcast cloud deck at 100 feet AGL
Weather: BR  (mist)

METAR text: EYPA 180032Z AUTO 06003KT 2300 BR OVC001/// 04/04 Q1023
Conditions at: EYPA (PALANGA INTL , LT) observed 0032 UTC 18 February 2019
Temperature: 4.0°C (39°F)
Dewpoint: 4.0°C (39°F) [RH = 100%]
Pressure (altimeter): 30.21 inches Hg (1023.0 mb)
Winds: from the ENE (60 degrees) at 3 MPH (3 knots; 1.5 m/s)
Visibility: 1.43 miles (2.30 km)
Ceiling: 100 feet AGL
Clouds: overcast cloud deck at 100 feet AGL
Weather: BR  (mist)

METAR text: EYPA 180026Z AUTO VRB02KT 2000 R19/1200VP2000U BR OVC001/// 04/04 Q1023
Conditions at: EYPA (PALANGA INTL , LT) observed 0026 UTC 18 February 2019
Temperature: 4.0°C (39°F)
Dewpoint: 4.0°C (39°F) [RH = 100%]
Pressure (altimeter): 30.21 inches Hg (1023.0 mb)
Winds: variable direction winds at 2 MPH (2 knots; 1.0 m/s)
Visibility: 1.24 miles (2.00 km)
Ceiling: 100 feet AGL
Clouds: overcast cloud deck at 100 feet AGL
Weather: BR  (mist)

METAR text: EYPA 180020Z AUTO VRB02KT 0550 R19/1200VP2000D FG BKN002/// 04/04 Q1023
Conditions at: EYPA (PALANGA INTL , LT) observed 0020 UTC 18 February 2019
Temperature: 4.0°C (39°F)
Dewpoint: 4.0°C (39°F) [RH = 100%]
Pressure (altimeter): 30.21 inches Hg (1023.0 mb)
Winds: variable direction winds at 2 MPH (2 knots; 1.0 m/s)
Visibility: 0.34 miles (0.55 km)
Ceiling: 200 feet AGL
Clouds: broken clouds at 200 feet AGL
Weather: FG  (fog)

METAR text: EYPA 180008Z AUTO 20003KT 1600 BR VV001 04/04 Q1023
Conditions at: EYPA (PALANGA INTL , LT) observed 0008 UTC 18 February 2019
Temperature: 4.0°C (39°F)
Dewpoint: 4.0°C (39°F) [RH = 100%]
Pressure (altimeter): 30.21 inches Hg (1023.0 mb)
Winds: from the SSW (200 degrees) at 3 MPH (3 knots; 1.5 m/s)
Visibility: 0.99 miles (1.59 km)
Ceiling: indefinite ceiling with vertical visibility of 100 feet AGL
Clouds: obscured sky
Weather: BR  (mist)

METAR text: EYPA 172350Z AUTO 19002KT 0550 R19/1400D FG SCT004/// BKN021/// 04/04 Q1023
Conditions at: EYPA (PALANGA INTL , LT) observed 2350 UTC 17 February 2019
Temperature: 4.0°C (39°F)
Dewpoint: 4.0°C (39°F) [RH = 100%]
Pressure (altimeter): 30.21 inches Hg (1023.0 mb)
Winds: from the S (190 degrees) at 2 MPH (2 knots; 1.0 m/s)
Visibility: 0.34 miles (0.55 km)
Ceiling: 2100 feet AGL
Clouds: scattered clouds at 400 feet AGL
broken clouds at 2100 feet AGL
Weather: FG  (fog)

METAR text: EYPA 172320Z AUTO VRB01KT 0700 R19/1400VP2000D FG BKN002/// BKN023/// 04/04 Q1023
Conditions at: EYPA (PALANGA INTL , LT) observed 2320 UTC 17 February 2019
Temperature: 4.0°C (39°F)
Dewpoint: 4.0°C (39°F) [RH = 100%]
Pressure (altimeter): 30.21 inches Hg (1023.0 mb)
Winds: variable direction winds at 1 MPH (1 knots; 0.5 m/s)
Visibility: 0.43 miles (0.69 km)
Ceiling: 200 feet AGL
Clouds: broken clouds at 200 feet AGL
broken clouds at 2300 feet AGL
Weather: FG  (fog)

METAR text: EYPA 172308Z AUTO VRB02KT 1600 BR VV002 04/04 Q1023
Conditions at: EYPA (PALANGA INTL , LT) observed 2308 UTC 17 February 2019
Temperature: 4.0°C (39°F)
Dewpoint: 4.0°C (39°F) [RH = 100%]
Pressure (altimeter): 30.21 inches Hg (1023.0 mb)
Winds: variable direction winds at 2 MPH (2 knots; 1.0 m/s)
Visibility: 0.99 miles (1.59 km)
Ceiling: indefinite ceiling with vertical visibility of 200 feet AGL
Clouds: obscured sky
Weather: BR  (mist)

METAR text: EYPA 172250Z VRB02KT 1400 R19/P2000N BR SCT001 BKN010 04/04 Q1023 R19/2///95
Conditions at: EYPA (PALANGA INTL , LT) observed 2250 UTC 17 February 2019
Temperature: 4.0°C (39°F)
Dewpoint: 4.0°C (39°F) [RH = 100%]
Pressure (altimeter): 30.21 inches Hg (1023.0 mb)
Winds: variable direction winds at 2 MPH (2 knots; 1.0 m/s)
Visibility: 0.87 miles (1.40 km)
Ceiling: 1000 feet AGL
Clouds: scattered clouds at 100 feet AGL
broken clouds at 1000 feet AGL
Weather: BR  (mist)

Forecast for: EYPA (PALANGA INTL , LT)
Text: TAF EYPA 190500Z 1906/2006 16012KT 1500 BR OVC002
Forecast period: 0600 to 1000 UTC 19 February 2019
Forecast type: FROM: standard forecast or significant change
Winds: from the SSE (160 degrees) at 14 MPH (12 knots; 6.2 m/s)
Visibility: 0.93 miles (1.50 km)
Ceiling: 200 feet AGL
Clouds: overcast cloud deck at 200 feet AGL
Weather: BR  (mist)
Text: TEMPO 1907/1910 0600 FG
Forecast period: 0700 to 1000 UTC 19 February 2019
Forecast type: TEMPORARY: The following changes expected for less than half the time period
Visibility: 0.37 miles (0.60 km)
Ceiling: unknown
Clouds: missing
Weather: FG  (fog)
Text: BECMG 1910/1912 22014KT 6000 BKN006
Forecast period: 1000 to 2000 UTC 19 February 2019
Forecast type: BECOMING: Conditions expected to become as follows by 1200 UTC 19 February 2019
Winds: from the SW (220 degrees) at 16 MPH (14 knots; 7.2 m/s)
Visibility: 4 miles (6 km)
Ceiling: 600 feet AGL
Clouds: broken clouds at 600 feet AGL
Weather: BR  (mist)
Text: TEMPO 1915/1920 3000 RA BR
Forecast period: 1500 to 2000 UTC 19 February 2019
Forecast type: TEMPORARY: The following changes expected for less than half the time period
Visibility: 1.86 miles (2.99 km)
Ceiling: unknown
Clouds: missing
Weather: RA BR  (moderate rain, mist)
Text: BECMG 1920/1921 28018G30KT
Forecast period: 2000 UTC 19 February 2019 to 0600 UTC 20 February 2019
Forecast type: BECOMING: Conditions expected to become as follows by 2100 UTC 19 February 2019
Winds: from the W (280 degrees) at 21 MPH (18 knots; 9.3 m/s)
gusting to 34 MPH (30 knots; 15.4 m/s)
Visibility: 4 miles (6 km)
Ceiling: 600 feet AGL
Clouds: broken clouds at 600 feet AGL
Weather: BR  (mist)